Time;durP1;ratioP1;P1;durP2;ratioP2;P2;SDS_P1;SDS_P2;PMS_P1;PMS_P2;Temp;Humidity;BMP_temperature;BMP_pressure;BME280_temperature;BME280_humidity;BME280_pressure;Samples;Min_cycle;Max_cycle;Signal;HPM_P1;HPM_P2
2021/10/13 00:01:45;;;;;;;0.40;0.40;;;;;;;4.93;88.06;90909.78;4975858;28;20475;-91
2021/10/13 00:04:10;;;;;;;0.30;0.30;;;;;;;4.79;89.13;90902.84;4990037;28;20498;-91
2021/10/13 00:06:36;;;;;;;0.52;0.40;;;;;;;4.79;89.44;90913.19;4963096;28;20606;-91
2021/10/13 00:09:01;;;;;;;0.68;0.50;;;;;;;4.79;89.50;90907.25;4962875;28;20046;-91
2021/10/13 00:11:27;;;;;;;1.10;0.60;;;;;;;4.75;89.90;90903.75;4962723;28;20031;-91
2021/10/13 00:13:52;;;;;;;2.13;1.10;;;;;;;4.84;88.70;90903.78;4962845;28;20033;-91
2021/10/13 00:16:18;;;;;;;1.80;1.00;;;;;;;4.75;89.39;90899.34;4962749;28;20033;-91
2021/10/13 00:18:43;;;;;;;2.17;1.20;;;;;;;4.72;89.27;90902.50;4962861;28;20534;-91
2021/10/13 00:21:08;;;;;;;1.85;1.60;;;;;;;4.56;90.39;90898.75;4962101;28;20483;-91
2021/10/13 00:23:34;;;;;;;2.05;1.50;;;;;;;4.57;90.79;90904.66;4995216;28;20475;-91
2021/10/13 00:25:59;;;;;;;2.33;1.67;;;;;;;4.60;90.81;90910.00;4985501;28;20023;-91
2021/10/13 00:28:25;;;;;;;2.28;1.65;;;;;;;4.68;90.53;90911.13;4975372;28;20023;-91
2021/10/13 00:30:50;;;;;;;2.63;1.80;;;;;;;4.64;89.88;90905.03;4943392;28;20023;-91
2021/10/13 00:33:16;;;;;;;1.85;1.65;;;;;;;4.58;90.43;90901.03;4994155;28;20030;-91
2021/10/13 00:35:41;;;;;;;2.58;1.50;;;;;;;4.67;90.44;90912.94;4978578;28;20033;-91
2021/10/13 00:38:06;;;;;;;3.55;1.70;;;;;;;4.71;89.84;90911.31;4962294;28;20030;-91
2021/10/13 00:40:32;;;;;;;2.33;1.83;;;;;;;4.72;89.81;90902.50;4996014;28;20022;-91
2021/10/13 00:42:57;;;;;;;2.28;1.77;;;;;;;4.99;88.61;90906.06;4994173;28;20022;-91
2021/10/13 00:45:23;;;;;;;3.90;1.92;;;;;;;4.79;89.16;90908.03;4962014;28;20026;-91
2021/10/13 00:47:49;;;;;;;3.22;1.88;;;;;;;4.84;89.24;90908.97;4978714;28;20449;-91
2021/10/13 00:50:14;;;;;;;3.67;2.20;;;;;;;4.75;89.73;90911.50;4978127;28;20037;-91
2021/10/13 00:52:41;;;;;;;3.08;1.75;;;;;;;4.79;89.52;90918.34;4962932;28;20037;-91
2021/10/13 00:55:08;;;;;;;3.50;2.38;;;;;;;4.77;89.77;90915.31;4978071;28;20495;-91
2021/10/13 00:57:33;;;;;;;2.53;2.10;;;;;;;4.87;90.23;90918.72;4962076;28;20033;-91
2021/10/13 00:59:59;;;;;;;2.30;2.00;;;;;;;4.98;89.10;90925.94;4977436;28;20026;-91
2021/10/13 01:02:30;;;;;;;2.00;1.52;;;;;;;4.93;89.23;90917.53;4961667;28;20030;-91
2021/10/13 01:05:30;;;;;;;4.47;2.13;;;;;;;4.77;89.90;90925.63;4961961;28;20038;-91
2021/10/13 01:08:43;;;;;;;3.97;2.10;;;;;;;4.99;88.97;90937.81;4963489;28;20034;-91
2021/10/13 01:11:42;;;;;;;4.43;2.60;;;;;;;4.95;88.98;90941.28;4991616;28;20043;-91
2021/10/13 01:14:19;;;;;;;3.83;3.00;;;;;;;4.86;89.82;90945.59;4993979;28;20030;-91
2021/10/13 01:16:58;;;;;;;3.65;3.05;;;;;;;4.65;89.95;90940.09;4995131;28;20030;-91
2021/10/13 01:19:50;;;;;;;6.25;3.40;;;;;;;4.39;89.49;90943.22;4962316;28;20542;-91
2021/10/13 01:22:53;;;;;;;6.45;3.67;;;;;;;4.45;88.86;90949.03;4961818;28;20022;-91
2021/10/13 01:25:48;;;;;;;6.47;3.80;;;;;;;4.39;88.65;90945.03;4993815;28;20033;-91
2021/10/13 01:28:20;;;;;;;7.20;4.07;;;;;;;4.32;88.92;90938.44;4977264;28;20034;-91
2021/10/13 01:30:51;;;;;;;5.38;4.25;;;;;;;4.32;88.71;90941.03;4977282;28;20034;-91
2021/10/13 01:33:35;;;;;;;6.20;4.07;;;;;;;4.47;88.27;90944.34;4961867;28;20037;-91
2021/10/13 01:36:03;;;;;;;7.00;4.25;;;;;;;4.49;88.59;90948.16;4962663;28;20023;-91
2021/10/13 01:38:30;;;;;;;6.70;4.20;;;;;;;4.38;88.87;90943.47;4961156;28;20037;-90
2021/10/13 01:40:58;;;;;;;7.85;5.15;;;;;;;4.44;88.39;90948.25;4977520;28;20452;-92
2021/10/13 01:43:24;;;;;;;11.93;6.15;;;;;;;4.33;89.93;90962.41;4961535;28;20037;-91
2021/10/13 01:45:53;;;;;;;7.55;4.85;;;;;;;4.34;89.96;90937.38;4993609;28;20398;-91
2021/10/13 01:48:18;;;;;;;8.60;5.47;;;;;;;4.29;88.94;90946.75;4993335;28;20018;-91
2021/10/13 01:50:44;;;;;;;9.05;4.97;;;;;;;4.32;88.93;90950.56;4976897;28;20033;-91
2021/10/13 01:53:10;;;;;;;7.38;4.65;;;;;;;4.27;88.96;90956.59;4992970;28;20064;-92
2021/10/13 01:55:35;;;;;;;9.45;5.75;;;;;;;4.29;89.44;90951.91;4975886;28;20054;-91
2021/10/13 01:58:01;;;;;;;7.53;4.47;;;;;;;4.29;88.96;90961.47;4941712;28;20022;-91
2021/10/13 02:00:26;;;;;;;5.85;4.38;;;;;;;4.25;88.95;90956.13;4941442;28;20105;-91
2021/10/13 02:02:52;;;;;;;7.93;4.50;;;;;;;4.41;88.79;90964.31;4957188;28;20019;-91
2021/10/13 02:05:17;;;;;;;6.22;4.10;;;;;;;4.37;87.84;90960.78;4941401;28;20034;-91
2021/10/13 02:07:43;;;;;;;7.50;4.82;;;;;;;4.25;88.66;90969.03;4941352;28;20026;-91
2021/10/13 02:10:10;;;;;;;6.95;4.38;;;;;;;4.23;89.08;90973.69;4941298;28;20029;-91
2021/10/13 02:12:36;;;;;;;5.93;4.32;;;;;;;4.29;89.77;90977.72;4973185;28;20034;-90
2021/10/13 02:15:03;;;;;;;5.55;4.32;;;;;;;4.60;87.97;90974.53;4941310;28;20101;-91
2021/10/13 02:17:28;;;;;;;7.63;4.78;;;;;;;4.42;87.40;90975.44;4957518;28;20054;-91
2021/10/13 02:19:54;;;;;;;7.43;4.88;;;;;;;4.25;89.11;90981.91;4941338;28;20384;-91
2021/10/13 02:22:19;;;;;;;11.07;6.05;;;;;;;4.30;88.56;90983.63;4940790;28;20031;-91
2021/10/13 02:24:47;;;;;;;13.35;6.50;;;;;;;4.30;88.41;90989.56;4947816;28;20049;-91
2021/10/13 02:27:29;;;;;;;7.85;5.72;;;;;;;4.24;88.29;90995.09;4960356;28;20026;-91
2021/10/13 02:29:55;;;;;;;8.13;5.20;;;;;;;4.14;88.58;90996.06;4960640;28;20022;-91
2021/10/13 02:32:20;;;;;;;9.38;5.78;;;;;;;4.13;89.41;90994.53;4959799;28;20034;-91
2021/10/13 02:34:46;;;;;;;8.45;5.53;;;;;;;4.38;87.38;91000.25;4976228;28;20113;-92
2021/10/13 02:37:11;;;;;;;7.25;5.40;;;;;;;4.36;86.79;91010.13;4976281;28;20497;-91
2021/10/13 02:39:37;;;;;;;7.43;5.85;;;;;;;4.17;88.10;91008.41;4960041;28;20482;-91
2021/10/13 02:42:02;;;;;;;7.93;4.82;;;;;;;4.17;88.08;91008.41;4975893;28;20486;-91
2021/10/13 02:44:28;;;;;;;8.77;5.60;;;;;;;4.06;87.66;91005.25;4959942;28;20385;-91
2021/10/13 02:46:59;;;;;;;6.82;5.20;;;;;;;4.21;87.30;91006.78;4975994;28;20043;-91
2021/10/13 02:49:27;;;;;;;8.38;5.13;;;;;;;4.15;86.54;91007.91;4976014;28;20019;-92
2021/10/13 02:52:20;;;;;;;6.70;5.15;;;;;;;4.07;88.35;91006.00;4991824;28;20038;-91
2021/10/13 02:54:50;;;;;;;7.47;4.75;;;;;;;4.16;87.19;91006.84;4973869;28;20558;-91
2021/10/13 02:57:16;;;;;;;6.93;5.20;;;;;;;4.07;87.08;91013.72;4956433;28;20115;-91
2021/10/13 02:59:42;;;;;;;7.82;5.20;;;;;;;4.11;86.17;91006.94;4940783;28;20019;-91
2021/10/13 03:02:13;;;;;;;10.00;5.82;;;;;;;3.90;87.61;91016.84;4940624;28;20364;-91
2021/10/13 03:04:41;;;;;;;7.55;4.93;;;;;;;3.83;88.20;91016.47;4972680;28;20026;-91
2021/10/13 03:07:10;;;;;;;7.05;5.07;;;;;;;3.75;88.01;91015.31;4941335;28;20100;-91
2021/10/13 03:09:40;;;;;;;8.75;4.93;;;;;;;3.75;88.34;91019.72;4956884;28;20033;-92
2021/10/13 03:12:08;;;;;;;6.97;4.93;;;;;;;3.84;87.38;91018.00;4972752;28;20046;-92
2021/10/13 03:14:33;;;;;;;6.57;4.72;;;;;;;3.64;87.94;91019.09;4973071;28;20047;-92
2021/10/13 03:16:59;;;;;;;9.18;5.63;;;;;;;3.62;87.65;91026.34;4940608;28;20502;-91
2021/10/13 03:19:25;;;;;;;9.57;5.65;;;;;;;3.76;87.00;91024.56;4972688;28;20031;-91
2021/10/13 03:21:50;;;;;;;6.75;5.13;;;;;;;3.61;87.81;91017.09;4968652;28;20030;-92
2021/10/13 03:24:16;;;;;;;9.32;5.40;;;;;;;3.55;87.61;91015.63;4959833;28;20486;-91
2021/10/13 03:26:46;;;;;;;7.85;4.90;;;;;;;3.41;88.27;91025.91;4975589;28;20395;-91
2021/10/13 03:29:12;;;;;;;7.90;5.15;;;;;;;3.32;88.54;91022.41;4992191;28;20386;-92
2021/10/13 03:31:37;;;;;;;7.22;5.45;;;;;;;3.26;88.67;91016.59;4975423;28;20029;-91
2021/10/13 03:34:02;;;;;;;8.20;5.95;;;;;;;3.15;88.92;91009.31;4976039;28;20490;-91
2021/10/13 03:36:32;;;;;;;9.35;5.65;;;;;;;3.26;88.51;91014.00;4975971;28;20023;-91
2021/10/13 03:38:58;;;;;;;8.35;5.55;;;;;;;3.16;88.54;91008.25;4960192;28;20050;-91
2021/10/13 03:41:23;;;;;;;8.32;6.35;;;;;;;3.06;89.01;91009.91;4991550;28;20479;-91
2021/10/13 03:43:49;;;;;;;8.30;6.20;;;;;;;2.95;89.48;91015.50;4959663;28;20027;-92
2021/10/13 03:46:19;;;;;;;7.63;5.40;;;;;;;2.92;89.40;91018.63;4975441;28;20060;-91
2021/10/13 03:48:46;;;;;;;8.73;5.78;;;;;;;2.70;90.18;91012.22;4958901;28;20030;-91
2021/10/13 03:51:12;;;;;;;9.57;5.78;;;;;;;2.72;89.69;91011.94;4975833;28;20086;-91
2021/10/13 03:53:37;;;;;;;8.48;5.55;;;;;;;2.56;89.75;91019.09;4991667;28;20030;-91
2021/10/13 03:56:03;;;;;;;9.85;5.75;;;;;;;2.51;90.46;91026.84;4972260;28;20027;-91
2021/10/13 03:58:28;;;;;;;8.32;5.93;;;;;;;2.51;90.15;91029.41;4956560;28;20023;-91
2021/10/13 04:00:54;;;;;;;7.63;5.80;;;;;;;2.42;90.14;91026.69;4956449;28;20522;-91
2021/10/13 04:03:19;;;;;;;7.70;5.25;;;;;;;2.42;89.60;91025.94;4940150;28;20034;-91
2021/10/13 04:05:44;;;;;;;10.18;5.40;;;;;;;2.32;89.58;91022.44;4956419;28;20033;-91
2021/10/13 04:08:10;;;;;;;7.32;4.90;;;;;;;2.24;89.93;91030.00;4940271;28;20045;-91
2021/10/13 04:10:35;;;;;;;6.45;4.75;;;;;;;2.23;89.31;91023.34;4959164;28;20026;-91
2021/10/13 04:13:01;;;;;;;7.75;4.63;;;;;;;2.22;88.92;91027.69;4975579;28;20392;-91
2021/10/13 04:15:26;;;;;;;7.60;5.30;;;;;;;2.08;89.71;91029.38;4959618;28;20037;-91
2021/10/13 04:17:52;;;;;;;7.03;4.78;;;;;;;2.11;89.63;91026.28;4966597;28;20117;-91
2021/10/13 04:20:17;;;;;;;8.63;5.07;;;;;;;1.98;89.94;91026.91;4978802;28;20026;-91
2021/10/13 04:22:43;;;;;;;5.95;4.93;;;;;;;2.10;89.44;91029.88;4962585;28;20026;-92
2021/10/13 04:25:08;;;;;;;7.35;5.10;;;;;;;2.07;89.19;91031.19;4962654;28;20029;-91
2021/10/13 04:27:34;;;;;;;6.88;4.97;;;;;;;2.03;89.00;91040.50;4962819;28;20486;-91
2021/10/13 04:29:59;;;;;;;6.57;4.80;;;;;;;2.01;88.86;91037.41;4978587;28;20045;-91
2021/10/13 04:32:25;;;;;;;5.55;4.40;;;;;;;1.90;89.06;91047.03;4978826;28;20073;-91
2021/10/13 04:34:50;;;;;;;6.20;4.55;;;;;;;1.94;88.78;91049.81;4978611;28;20026;-91
2021/10/13 04:37:16;;;;;;;7.68;4.82;;;;;;;2.03;88.67;91055.91;4962382;28;20023;-90
2021/10/13 04:39:41;;;;;;;8.20;4.70;;;;;;;1.90;89.50;91062.44;4994717;28;20022;-91
2021/10/13 04:42:07;;;;;;;6.40;5.15;;;;;;;1.85;90.00;91059.19;4978265;28;20117;-91
2021/10/13 04:44:32;;;;;;;9.23;5.60;;;;;;;1.83;90.74;91067.16;4962178;28;20394;-91
2021/10/13 04:46:57;;;;;;;7.65;5.65;;;;;;;1.96;91.02;91070.91;4994703;28;20049;-92
2021/10/13 04:49:23;;;;;;;8.55;5.15;;;;;;;2.03;91.05;91080.88;4962737;28;20072;-91
2021/10/13 04:51:48;;;;;;;7.57;5.20;;;;;;;2.14;90.46;91087.44;4962321;28;20081;-91
2021/10/13 04:54:14;;;;;;;7.05;5.22;;;;;;;2.25;89.60;91082.97;4978123;28;20030;-91
2021/10/13 04:56:39;;;;;;;6.32;4.60;;;;;;;2.10;90.00;91082.06;4978129;28;20023;-91
2021/10/13 04:59:04;;;;;;;6.35;5.00;;;;;;;2.08;90.72;91078.22;4978389;28;20031;-91
2021/10/13 05:01:30;;;;;;;7.60;5.38;;;;;;;2.13;90.53;91081.53;4994387;28;20022;-91
2021/10/13 05:03:55;;;;;;;8.75;5.57;;;;;;;2.26;90.88;91080.13;4977981;28;20503;-90
2021/10/13 05:06:21;;;;;;;8.82;5.70;;;;;;;2.29;90.77;91086.50;4977797;28;20026;-91
2021/10/13 05:08:46;;;;;;;8.15;5.53;;;;;;;2.37;90.48;91081.56;4994424;28;20031;-91
2021/10/13 05:11:12;;;;;;;10.13;5.97;;;;;;;2.33;91.00;91087.50;4977695;28;20030;-91
2021/10/13 05:13:37;;;;;;;7.13;5.30;;;;;;;2.39;90.90;91084.59;4994214;28;20042;-91
2021/10/13 05:16:03;;;;;;;7.88;5.65;;;;;;;2.47;90.38;91101.25;4977227;28;20514;-91
2021/10/13 05:18:29;;;;;;;7.63;5.30;;;;;;;2.42;90.06;91097.97;4961852;28;20018;-91
2021/10/13 05:20:54;;;;;;;9.63;5.50;;;;;;;2.49;89.90;91100.97;4977216;28;20041;-91
2021/10/13 05:23:19;;;;;;;10.30;6.40;;;;;;;2.35;90.59;91109.34;4961005;28;20026;-91
2021/10/13 05:25:45;;;;;;;9.98;6.75;;;;;;;2.71;88.79;91096.09;4961660;28;20027;-91
2021/10/13 05:28:10;;;;;;;10.90;7.20;;;;;;;2.59;89.45;91104.22;4977476;28;20037;-91
2021/10/13 05:30:36;;;;;;;8.23;6.50;;;;;;;2.52;89.92;91114.06;4977151;28;20746;-91
2021/10/13 05:33:01;;;;;;;9.10;6.57;;;;;;;2.48;90.05;91125.94;4961249;28;20049;-91
2021/10/13 05:35:26;;;;;;;8.98;5.63;;;;;;;2.50;90.28;91125.66;4961307;28;20065;-91
2021/10/13 05:37:52;;;;;;;8.77;5.95;;;;;;;2.51;91.01;91119.47;4977236;28;20076;-92
2021/10/13 05:40:17;;;;;;;8.95;6.57;;;;;;;2.62;90.22;91118.34;4977356;28;20046;-91
2021/10/13 05:42:43;;;;;;;9.23;5.68;;;;;;;2.48;89.65;91114.88;4960925;28;20502;-91
2021/10/13 05:45:08;;;;;;;9.68;6.15;;;;;;;2.37;89.88;91130.44;4961059;28;20394;-91
2021/10/13 05:47:34;;;;;;;8.05;5.90;;;;;;;2.46;89.88;91127.25;4993383;28;20398;-91
2021/10/13 05:49:59;;;;;;;8.55;6.38;;;;;;;2.37;90.66;91127.84;4993181;28;20026;-91
2021/10/13 05:52:25;;;;;;;8.43;6.28;;;;;;;2.45;90.76;91133.44;4960672;28;20034;-91
2021/10/13 05:54:50;;;;;;;9.32;6.40;;;;;;;2.60;90.58;91133.28;4960896;28;20077;-91
2021/10/13 05:57:16;;;;;;;9.85;6.57;;;;;;;2.54;90.38;91136.94;4993514;28;20494;-91
2021/10/13 05:59:42;;;;;;;8.45;5.40;;;;;;;2.62;87.78;91136.34;4994680;28;20429;-91
2021/10/13 06:02:08;;;;;;;7.88;6.05;;;;;;;2.69;89.13;91139.38;4976908;28;20022;-91
2021/10/13 06:04:33;;;;;;;7.93;5.32;;;;;;;2.67;89.93;91140.66;4960733;28;20018;-91
2021/10/13 06:06:59;;;;;;;7.80;5.85;;;;;;;2.68;90.31;91145.53;4977060;28;20019;-91
2021/10/13 06:09:24;;;;;;;8.45;5.57;;;;;;;2.67;90.43;91146.56;4960747;28;20026;-91
2021/10/13 06:11:49;;;;;;;9.90;6.28;;;;;;;2.63;90.23;91159.22;4960496;28;20061;-91
2021/10/13 06:14:15;;;;;;;7.55;5.57;;;;;;;2.76;88.56;91164.78;4994727;28;20628;-91
2021/10/13 06:16:40;;;;;;;8.52;5.55;;;;;;;2.73;87.93;91163.50;4977231;28;20376;-91
2021/10/13 06:19:06;;;;;;;7.90;5.95;;;;;;;2.74;88.54;91167.59;4977050;28;20027;-92
2021/10/13 06:21:31;;;;;;;7.75;5.88;;;;;;;2.81;89.17;91160.31;4993132;28;20026;-91
2021/10/13 06:23:57;;;;;;;9.10;6.57;;;;;;;2.78;89.70;91172.97;4975282;28;20025;-90
2021/10/13 06:26:22;;;;;;;8.75;6.35;;;;;;;2.79;89.73;91179.66;4960464;28;20544;-91
2021/10/13 06:28:48;;;;;;;10.15;6.28;;;;;;;2.79;89.43;91182.22;4975744;28;20030;-91
2021/10/13 06:31:13;;;;;;;7.60;5.75;;;;;;;2.82;89.82;91190.16;4991918;28;20022;-89
2021/10/13 06:33:39;;;;;;;6.38;4.80;;;;;;;3.10;87.93;91191.13;4976234;28;20026;-90
2021/10/13 06:36:05;;;;;;;7.93;5.50;;;;;;;3.13;87.84;91194.22;4976486;28;20022;-90
2021/10/13 06:38:31;;;;;;;7.78;4.85;;;;;;;3.02;86.39;91193.56;4960179;28;20033;-91
2021/10/13 06:40:58;;;;;;;7.38;4.85;;;;;;;2.97;87.32;91212.41;4998960;28;20026;-91
2021/10/13 06:43:24;;;;;;;6.82;4.20;;;;;;;2.76;87.04;91206.72;4967869;28;20030;-90
2021/10/13 06:45:49;;;;;;;5.40;4.47;;;;;;;2.96;88.09;91205.72;4992556;28;20018;-90
2021/10/13 06:48:15;;;;;;;6.05;4.63;;;;;;;2.95;86.67;91216.31;4976463;28;20026;-91
2021/10/13 06:50:41;;;;;;;7.15;3.97;;;;;;;2.88;86.80;91214.81;4960588;28;20046;-92
2021/10/13 06:53:07;;;;;;;5.45;3.38;;;;;;;2.97;86.22;91225.28;4987506;23;20048;-86
2021/10/13 06:55:32;;;;;;;7.35;3.65;;;;;;;2.94;86.24;91228.41;4958650;28;20123;-86
2021/10/13 06:57:58;;;;;;;6.88;3.90;;;;;;;2.86;86.83;91237.50;4973649;28;20037;-87
2021/10/13 07:00:23;;;;;;;7.35;4.00;;;;;;;2.99;86.49;91240.47;4967857;28;20045;-88
2021/10/13 07:02:49;;;;;;;5.50;3.90;;;;;;;2.88;87.08;91240.56;4991249;28;20026;-87
2021/10/13 07:05:14;;;;;;;8.05;3.50;;;;;;;3.11;85.72;91253.75;5000940;28;20035;-85
2021/10/13 07:07:47;;;;;;;9.43;3.50;;;;;;;3.16;85.67;91250.34;4996730;28;20058;-86
2021/10/13 07:10:13;;;;;;;5.28;2.92;;;;;;;3.16;85.80;91250.34;4997198;28;20490;-85
2021/10/13 07:12:38;;;;;;;5.25;2.92;;;;;;;3.17;85.44;91255.19;4977723;28;20030;-86
2021/10/13 07:15:04;;;;;;;4.60;3.15;;;;;;;3.40;85.70;91260.63;4976839;28;20388;-87
2021/10/13 07:17:30;;;;;;;5.10;3.20;;;;;;;3.48;83.63;91252.28;4995074;28;20054;-85
2021/10/13 07:19:55;;;;;;;5.50;2.80;;;;;;;3.52;84.46;91255.84;5012016;28;20097;-86
2021/10/13 07:22:21;;;;;;;4.22;2.83;;;;;;;3.57;84.87;91259.13;4995044;28;20031;-84
2021/10/13 07:24:46;;;;;;;4.28;2.58;;;;;;;3.69;83.84;91251.00;4980596;28;20602;-86
2021/10/13 07:27:12;;;;;;;5.10;2.65;;;;;;;3.74;83.42;91245.75;4981655;28;20073;-86
2021/10/13 07:29:42;;;;;;;5.78;2.70;;;;;;;3.75;81.96;91239.56;5012945;28;20390;-86
2021/10/13 07:32:08;;;;;;;5.93;2.63;;;;;;;3.93;81.78;91247.59;4997998;28;20026;-85
2021/10/13 07:34:33;;;;;;;3.78;2.20;;;;;;;4.08;80.70;91261.03;4981525;28;20029;-86
2021/10/13 07:36:59;;;;;;;6.70;2.75;;;;;;;4.11;80.68;91254.56;4996766;28;20030;-86
2021/10/13 07:39:24;;;;;;;4.53;2.17;;;;;;;4.20;78.71;91263.19;4979867;28;20030;-85
2021/10/13 07:41:49;;;;;;;4.68;2.67;;;;;;;4.27;78.60;91253.28;4977907;28;20026;-84
2021/10/13 07:44:15;;;;;;;5.13;2.47;;;;;;;4.08;78.34;91255.88;4999454;28;20065;-85
2021/10/13 07:46:40;;;;;;;4.55;2.40;;;;;;;4.14;77.68;91255.81;5000141;28;20394;-88
2021/10/13 07:49:06;;;;;;;5.40;2.65;;;;;;;4.19;78.68;91253.91;4998717;28;20019;-87
2021/10/13 07:51:31;;;;;;;9.20;3.72;;;;;;;4.24;80.29;91264.19;4999851;28;20038;-84
2021/10/13 07:53:56;;;;;;;6.65;2.40;;;;;;;4.28;77.70;91270.31;4966956;28;20502;-86
2021/10/13 07:56:22;;;;;;;3.70;2.20;;;;;;;4.37;77.36;91265.28;5000245;28;20553;-86
2021/10/13 07:58:47;;;;;;;3.42;1.80;;;;;;;4.31;77.59;91262.00;4968757;28;20030;-86
2021/10/13 08:01:13;;;;;;;5.43;2.22;;;;;;;4.30;77.49;91260.47;4983844;28;20022;-85
2021/10/13 08:03:40;;;;;;;4.30;1.83;;;;;;;4.13;75.41;91270.50;4999760;28;20076;-85
2021/10/13 08:06:06;;;;;;;3.55;2.15;;;;;;;4.14;75.15;91269.47;4999296;28;20490;-85
2021/10/13 08:08:31;;;;;;;4.38;2.03;;;;;;;4.05;74.36;91266.00;4982442;28;20037;-86
2021/10/13 08:10:57;;;;;;;4.35;2.50;;;;;;;4.02;75.16;91276.84;4982943;28;20034;-87
2021/10/13 08:13:22;;;;;;;6.10;2.47;;;;;;;3.86;78.92;91265.22;4966894;28;20022;-87
2021/10/13 08:15:48;;;;;;;4.40;2.28;;;;;;;3.89;76.65;91268.03;4982781;28;20474;-86
2021/10/13 08:18:13;;;;;;;3.45;2.33;;;;;;;3.99;77.15;91277.41;4982921;28;20041;-86
2021/10/13 08:20:38;;;;;;;5.90;2.30;;;;;;;3.89;74.08;91277.53;4966571;28;20022;-87
2021/10/13 08:23:04;;;;;;;6.07;2.42;;;;;;;3.92;73.58;91282.16;5000875;28;20082;-87
2021/10/13 08:25:29;;;;;;;3.50;2.03;;;;;;;3.84;76.53;91270.66;4983055;28;20038;-85
2021/10/13 08:27:55;;;;;;;3.88;2.33;;;;;;;3.89;76.31;91273.19;5001508;28;20042;-87
2021/10/13 08:30:20;;;;;;;7.28;2.40;;;;;;;4.05;74.57;91286.63;5017489;28;20050;-85
2021/10/13 08:32:46;;;;;;;3.83;2.05;;;;;;;4.07;76.77;91281.97;4986409;28;20513;-87
2021/10/13 08:35:11;;;;;;;4.30;2.17;;;;;;;4.20;77.21;91285.63;5001883;28;20026;-87
2021/10/13 08:37:37;;;;;;;4.22;1.95;;;;;;;4.21;76.05;91289.78;5002382;28;20056;-87
2021/10/13 08:40:03;;;;;;;5.05;2.35;;;;;;;4.17;77.50;91291.34;5023908;28;20026;-86
2021/10/13 08:42:29;;;;;;;3.53;2.00;;;;;;;4.14;77.61;91284.19;4985348;28;20026;-86
2021/10/13 08:44:54;;;;;;;3.83;1.92;;;;;;;4.12;75.75;91281.88;4965251;28;20462;-86
2021/10/13 08:47:20;;;;;;;2.40;1.85;;;;;;;4.14;76.03;91282.38;4983431;28;20131;-86
2021/10/13 08:49:46;;;;;;;3.95;1.88;;;;;;;4.23;75.22;91283.28;5007137;28;20386;-86
2021/10/13 08:52:12;;;;;;;5.30;2.13;;;;;;;4.47;76.69;91279.84;4982070;28;20137;-87
2021/10/13 08:54:38;;;;;;;4.00;2.05;;;;;;;4.49;79.75;91285.50;4999555;28;20038;-86
2021/10/13 08:57:20;;;;;;;4.25;1.88;;;;;;;4.56;77.36;91283.31;5000368;28;20061;-87
2021/10/13 08:59:47;;;;;;;5.35;2.10;;;;;;;4.32;75.03;91280.84;4983689;28;20456;-86
2021/10/13 09:02:13;;;;;;;4.65;2.35;;;;;;;4.25;76.80;91286.34;4999215;28;20022;-87
2021/10/13 09:04:38;;;;;;;4.78;2.17;;;;;;;4.39;76.62;91283.06;5000917;28;20027;-87
2021/10/13 09:07:04;;;;;;;3.20;2.00;;;;;;;4.26;74.61;91295.63;4976011;28;20033;-86
2021/10/13 09:09:30;;;;;;;3.05;2.00;;;;;;;4.17;76.36;91301.66;5017617;28;20056;-87
2021/10/13 09:11:55;;;;;;;2.72;2.10;;;;;;;4.22;75.31;91307.53;5000797;28;20045;-85
2021/10/13 09:14:24;;;;;;;3.47;2.00;;;;;;;4.23;73.11;91306.50;4987073;28;20030;-87
2021/10/13 09:16:50;;;;;;;5.10;1.90;;;;;;;4.26;75.40;91312.91;4986869;28;20057;-85
2021/10/13 09:19:15;;;;;;;5.57;2.10;;;;;;;4.27;74.96;91309.28;5014093;28;20026;-86
2021/10/13 09:22:05;;;;;;;3.63;2.17;;;;;;;4.25;75.22;91312.16;5020536;28;20046;-86
2021/10/13 09:24:31;;;;;;;5.53;2.10;;;;;;;4.25;76.13;91313.97;4997180;28;20109;-85
2021/10/13 09:26:58;;;;;;;3.30;2.05;;;;;;;4.28;76.99;91314.19;4995867;28;20026;-86
2021/10/13 09:29:23;;;;;;;3.85;1.98;;;;;;;4.29;75.60;91318.28;4980402;28;20473;-85
2021/10/13 09:31:56;;;;;;;4.55;2.00;;;;;;;4.28;76.13;91306.44;4979979;28;20033;-86
2021/10/13 09:34:22;;;;;;;7.28;3.38;;;;;;;4.54;75.61;91303.47;4980672;28;20058;-86
2021/10/13 09:36:51;;;;;;;3.60;1.88;;;;;;;4.74;75.15;91305.00;4980767;28;20084;-86
2021/10/13 09:39:18;;;;;;;4.63;1.92;;;;;;;4.64;74.86;91300.75;4996623;28;20026;-85
2021/10/13 09:42:08;;;;;;;4.15;1.70;;;;;;;4.83;75.73;91305.09;4981343;28;20509;-85
2021/10/13 09:44:41;;;;;;;5.22;1.92;;;;;;;4.94;77.35;91306.47;5001383;28;20077;-85
2021/10/13 09:47:09;;;;;;;3.42;1.75;;;;;;;5.03;77.16;91309.94;4979641;28;20387;-85
2021/10/13 09:49:39;;;;;;;3.85;1.40;;;;;;;5.05;76.17;91313.00;4963457;28;20018;-85
2021/10/13 09:52:08;;;;;;;4.43;1.67;;;;;;;5.41;74.50;91307.22;4996384;28;20533;-85
2021/10/13 09:54:35;;;;;;;2.92;1.40;;;;;;;5.70;74.40;91310.28;5010892;28;20368;-86
2021/10/13 09:57:22;;;;;;;6.05;1.60;;;;;;;5.98;73.16;91312.91;4993797;28;20034;-87
2021/10/13 10:00:00;;;;;;;5.03;1.70;;;;;;;6.21;73.63;91314.47;4978122;28;20026;-86
2021/10/13 10:02:27;;;;;;;1.88;1.40;;;;;;;6.32;71.58;91311.66;4994304;28;20069;-86
2021/10/13 10:04:53;;;;;;;4.60;1.70;;;;;;;6.61;72.02;91304.31;4995641;28;20033;-85
2021/10/13 10:07:19;;;;;;;2.50;1.35;;;;;;;6.54;63.82;91309.13;5010124;28;20501;-86
2021/10/13 10:09:53;;;;;;;3.42;1.33;;;;;;;6.72;67.78;91297.06;5012139;28;20037;-86
2021/10/13 10:12:18;;;;;;;3.13;1.47;;;;;;;6.81;65.11;91304.88;4995547;28;20030;-86
2021/10/13 10:14:44;;;;;;;3.72;1.60;;;;;;;6.56;63.36;91312.16;4981681;28;20330;-86
2021/10/13 10:17:09;;;;;;;2.83;1.80;;;;;;;6.56;67.73;91303.63;4995838;28;20497;-85
2021/10/13 10:19:40;;;;;;;4.72;2.00;;;;;;;6.41;69.03;91299.56;5007122;28;20019;-87
2021/10/13 10:22:11;;;;;;;3.78;1.90;;;;;;;6.61;69.12;91309.47;4970137;28;20056;-85
2021/10/13 10:24:37;;;;;;;2.85;1.70;;;;;;;6.38;68.50;91311.28;4979892;28;20022;-88
2021/10/13 10:27:25;;;;;;;4.07;1.85;;;;;;;6.03;67.69;91310.19;4977800;28;20097;-87
2021/10/13 10:30:08;;;;;;;4.32;1.90;;;;;;;6.33;72.33;91311.38;4994286;28;20072;-88
2021/10/13 10:32:40;;;;;;;2.80;1.67;;;;;;;6.87;70.21;91309.66;4994240;28;20129;-87
2021/10/13 10:35:05;;;;;;;4.25;1.83;;;;;;;7.05;71.28;91314.94;4963142;28;20026;-87
2021/10/13 10:37:41;;;;;;;4.85;1.70;;;;;;;7.18;71.28;91309.69;4993330;28;20034;-86
2021/10/13 10:40:19;;;;;;;3.47;2.00;;;;;;;7.27;65.52;91319.34;4976443;28;20076;-85
2021/10/13 10:42:54;;;;;;;3.67;1.80;;;;;;;7.46;68.44;91317.31;4979430;28;20029;-86
2021/10/13 10:45:21;;;;;;;2.92;1.20;;;;;;;7.13;66.12;91320.16;4979518;28;20010;-88
2021/10/13 10:47:51;;;;;;;2.60;1.35;;;;;;;6.90;66.45;91321.25;5001690;28;20102;-87
2021/10/13 10:50:52;;;;;;;5.05;1.50;;;;;;;6.09;63.41;91321.97;5000424;28;20037;-88
2021/10/13 10:53:37;;;;;;;4.10;1.45;;;;;;;5.98;63.37;91318.81;4993924;28;20038;-89
2021/10/13 10:56:23;;;;;;;2.92;1.20;;;;;;;5.65;66.76;91317.38;4975239;28;20037;-87
2021/10/13 10:59:08;;;;;;;3.60;1.40;;;;;;;5.46;66.71;91323.41;4991786;28;20027;-88
2021/10/13 11:01:34;;;;;;;4.88;2.30;;;;;;;5.59;67.46;91316.72;4992369;28;20014;-88
2021/10/13 11:04:07;;;;;;;2.08;1.38;;;;;;;5.96;68.38;91327.94;4991712;28;20034;-89
2021/10/13 11:06:34;;;;;;;2.30;1.30;;;;;;;6.20;65.76;91319.94;4992857;28;20033;-86
2021/10/13 11:09:06;;;;;;;2.08;1.38;;;;;;;6.38;67.03;91326.03;5009372;28;20033;-87
2021/10/13 11:11:37;;;;;;;3.17;1.55;;;;;;;6.80;63.91;91318.91;4991651;28;20030;-88
2021/10/13 11:14:13;;;;;;;2.30;1.30;;;;;;;7.24;67.74;91320.69;5010293;28;20022;-87
2021/10/13 11:16:47;;;;;;;3.20;1.70;;;;;;;7.64;69.29;91324.09;4993549;28;20497;-86
2021/10/13 11:19:18;;;;;;;4.33;1.30;;;;;;;8.19;65.40;91319.50;4996195;28;20050;-87
2021/10/13 11:21:44;;;;;;;2.38;1.20;;;;;;;8.43;66.03;91319.13;4996950;28;20018;-87
2021/10/13 11:24:09;;;;;;;2.78;1.27;;;;;;;7.86;61.37;91325.09;4979649;28;20225;-87
2021/10/13 11:26:35;;;;;;;2.92;1.10;;;;;;;7.55;62.10;91320.69;4995670;28;20042;-87
2021/10/13 11:29:00;;;;;;;3.67;1.30;;;;;;;7.42;64.75;91316.38;4995664;28;20018;-88
2021/10/13 11:31:26;;;;;;;1.85;1.15;;;;;;;7.32;62.01;91314.03;4995788;28;20455;-87
2021/10/13 11:34:03;;;;;;;2.55;1.33;;;;;;;7.03;64.14;91314.47;5008248;28;20049;-89
2021/10/13 11:36:29;;;;;;;4.07;1.20;;;;;;;6.92;62.14;91316.53;5019529;28;20093;-87
2021/10/13 11:38:55;;;;;;;1.88;1.08;;;;;;;6.75;64.60;91319.00;5012378;28;20030;-87
2021/10/13 11:41:21;;;;;;;3.10;1.20;;;;;;;6.38;64.56;91321.63;4995965;28;20029;-87
2021/10/13 11:43:46;;;;;;;4.15;1.38;;;;;;;6.16;65.58;91330.09;5012289;28;20027;-86
2021/10/13 11:46:16;;;;;;;3.78;1.20;;;;;;;6.28;64.18;91321.06;4996233;28;20022;-89